sensor_id;sensor_type;location;lat;lon;timestamp;P1;durP1;ratioP1;P2;durP2;ratioP2
47239;SDS011;32978;53.586;10.052;2024-02-15T00:00:16;27.75;;;15.38;;
47239;SDS011;32978;53.586;10.052;2024-02-15T00:05:13;27.88;;;14.45;;
47239;SDS011;32978;53.586;10.052;2024-02-15T00:10:12;26.25;;;14.70;;
47239;SDS011;32978;53.586;10.052;2024-02-15T00:15:08;25.63;;;13.90;;
47239;SDS011;32978;53.586;10.052;2024-02-15T00:20:05;24.65;;;13.35;;
47239;SDS011;32978;53.586;10.052;2024-02-15T00:25:05;29.50;;;15.60;;
47239;SDS011;32978;53.586;10.052;2024-02-15T00:30:03;30.40;;;15.93;;
47239;SDS011;32978;53.586;10.052;2024-02-15T00:35:01;32.58;;;17.10;;
47239;SDS011;32978;53.586;10.052;2024-02-15T00:39:58;40.10;;;18.73;;
47239;SDS011;32978;53.586;10.052;2024-02-15T00:44:55;36.10;;;18.83;;
47239;SDS011;32978;53.586;10.052;2024-02-15T00:49:52;38.72;;;19.67;;
47239;SDS011;32978;53.586;10.052;2024-02-15T00:54:49;38.25;;;21.27;;
47239;SDS011;32978;53.586;10.052;2024-02-15T00:59:45;44.28;;;22.67;;
47239;SDS011;32978;53.586;10.052;2024-02-15T01:04:42;37.95;;;21.48;;
47239;SDS011;32978;53.586;10.052;2024-02-15T01:09:39;36.00;;;21.10;;
47239;SDS011;32978;53.586;10.052;2024-02-15T01:14:35;34.83;;;20.25;;
47239;SDS011;32978;53.586;10.052;2024-02-15T01:19:32;35.88;;;21.90;;
47239;SDS011;32978;53.586;10.052;2024-02-15T01:24:28;45.38;;;22.80;;
47239;SDS011;32978;53.586;10.052;2024-02-15T01:29:26;43.30;;;21.50;;
47239;SDS011;32978;53.586;10.052;2024-02-15T01:34:22;39.55;;;23.38;;
47239;SDS011;32978;53.586;10.052;2024-02-15T01:39:19;37.03;;;20.77;;
47239;SDS011;32978;53.586;10.052;2024-02-15T01:44:16;38.90;;;21.70;;
47239;SDS011;32978;53.586;10.052;2024-02-15T01:49:14;39.38;;;21.25;;
47239;SDS011;32978;53.586;10.052;2024-02-15T01:54:12;38.40;;;20.40;;
47239;SDS011;32978;53.586;10.052;2024-02-15T01:59:14;39.85;;;21.27;;
47239;SDS011;32978;53.586;10.052;2024-02-15T02:04:11;40.85;;;20.63;;
47239;SDS011;32978;53.586;10.052;2024-02-15T02:09:11;39.05;;;20.83;;
47239;SDS011;32978;53.586;10.052;2024-02-15T02:14:12;40.38;;;20.83;;
47239;SDS011;32978;53.586;10.052;2024-02-15T02:19:08;36.63;;;19.92;;
47239;SDS011;32978;53.586;10.052;2024-02-15T02:24:09;38.05;;;21.23;;
47239;SDS011;32978;53.586;10.052;2024-02-15T02:29:09;43.35;;;21.63;;
47239;SDS011;32978;53.586;10.052;2024-02-15T02:34:06;39.38;;;21.13;;
47239;SDS011;32978;53.586;10.052;2024-02-15T02:39:04;38.85;;;20.75;;
47239;SDS011;32978;53.586;10.052;2024-02-15T02:44:00;42.30;;;21.00;;
47239;SDS011;32978;53.586;10.052;2024-02-15T02:48:57;36.80;;;18.88;;
47239;SDS011;32978;53.586;10.052;2024-02-15T02:53:54;37.35;;;18.92;;
47239;SDS011;32978;53.586;10.052;2024-02-15T02:58:50;37.20;;;20.52;;
47239;SDS011;32978;53.586;10.052;2024-02-15T03:03:48;38.80;;;19.90;;
47239;SDS011;32978;53.586;10.052;2024-02-15T03:08:45;40.75;;;19.38;;
47239;SDS011;32978;53.586;10.052;2024-02-15T03:13:43;40.53;;;19.70;;
47239;SDS011;32978;53.586;10.052;2024-02-15T03:18:40;38.42;;;18.88;;
47239;SDS011;32978;53.586;10.052;2024-02-15T03:23:37;31.15;;;16.67;;
47239;SDS011;32978;53.586;10.052;2024-02-15T03:28:34;28.50;;;15.70;;
47239;SDS011;32978;53.586;10.052;2024-02-15T03:33:32;27.52;;;15.65;;
47239;SDS011;32978;53.586;10.052;2024-02-15T03:38:30;31.65;;;14.60;;
47239;SDS011;32978;53.586;10.052;2024-02-15T03:43:27;29.02;;;14.57;;
47239;SDS011;32978;53.586;10.052;2024-02-15T03:48:24;25.00;;;13.70;;
47239;SDS011;32978;53.586;10.052;2024-02-15T03:53:20;29.23;;;15.35;;
47239;SDS011;32978;53.586;10.052;2024-02-15T03:58:17;29.08;;;16.05;;
47239;SDS011;32978;53.586;10.052;2024-02-15T04:03:13;37.60;;;17.23;;
47239;SDS011;32978;53.586;10.052;2024-02-15T04:08:10;39.05;;;18.77;;
47239;SDS011;32978;53.586;10.052;2024-02-15T04:13:07;33.72;;;18.13;;
47239;SDS011;32978;53.586;10.052;2024-02-15T04:18:03;36.38;;;18.50;;
47239;SDS011;32978;53.586;10.052;2024-02-15T04:23:00;41.33;;;20.38;;
47239;SDS011;32978;53.586;10.052;2024-02-15T04:27:56;46.95;;;20.83;;
47239;SDS011;32978;53.586;10.052;2024-02-15T04:32:55;43.13;;;19.42;;
47239;SDS011;32978;53.586;10.052;2024-02-15T04:37:52;43.70;;;21.60;;
47239;SDS011;32978;53.586;10.052;2024-02-15T04:42:49;52.65;;;21.58;;
47239;SDS011;32978;53.586;10.052;2024-02-15T04:47:46;48.90;;;20.95;;
47239;SDS011;32978;53.586;10.052;2024-02-15T04:52:45;43.00;;;21.15;;
47239;SDS011;32978;53.586;10.052;2024-02-15T04:57:44;44.00;;;20.15;;
47239;SDS011;32978;53.586;10.052;2024-02-15T05:02:43;44.03;;;21.30;;
47239;SDS011;32978;53.586;10.052;2024-02-15T05:07:41;45.38;;;21.15;;
47239;SDS011;32978;53.586;10.052;2024-02-15T05:12:39;49.45;;;21.60;;
47239;SDS011;32978;53.586;10.052;2024-02-15T05:17:40;47.22;;;22.23;;
47239;SDS011;32978;53.586;10.052;2024-02-15T05:22:38;44.78;;;21.70;;
47239;SDS011;32978;53.586;10.052;2024-02-15T05:30:33;46.72;;;21.73;;
47239;SDS011;32978;53.586;10.052;2024-02-15T05:35:30;46.08;;;22.25;;
47239;SDS011;32978;53.586;10.052;2024-02-15T05:40:26;44.28;;;22.60;;
47239;SDS011;32978;53.586;10.052;2024-02-15T05:50:21;41.47;;;20.63;;
47239;SDS011;32978;53.586;10.052;2024-02-15T05:55:18;44.05;;;22.05;;
47239;SDS011;32978;53.586;10.052;2024-02-15T06:00:15;47.50;;;21.00;;
47239;SDS011;32978;53.586;10.052;2024-02-15T06:05:18;44.53;;;21.70;;
47239;SDS011;32978;53.586;10.052;2024-02-15T06:10:16;42.60;;;21.38;;
47239;SDS011;32978;53.586;10.052;2024-02-15T06:15:12;49.15;;;22.00;;
47239;SDS011;32978;53.586;10.052;2024-02-15T06:20:13;50.63;;;23.40;;
47239;SDS011;32978;53.586;10.052;2024-02-15T06:25:10;50.33;;;24.10;;
47239;SDS011;32978;53.586;10.052;2024-02-15T06:30:08;46.00;;;20.80;;
47239;SDS011;32978;53.586;10.052;2024-02-15T06:35:24;46.10;;;20.77;;
47239;SDS011;32978;53.586;10.052;2024-02-15T06:40:39;48.55;;;22.08;;
47239;SDS011;32978;53.586;10.052;2024-02-15T06:45:36;57.80;;;25.63;;
47239;SDS011;32978;53.586;10.052;2024-02-15T06:50:34;48.75;;;21.95;;
47239;SDS011;32978;53.586;10.052;2024-02-15T06:55:33;52.30;;;20.27;;
47239;SDS011;32978;53.586;10.052;2024-02-15T07:00:30;56.47;;;22.48;;
47239;SDS011;32978;53.586;10.052;2024-02-15T07:05:27;60.53;;;24.00;;
47239;SDS011;32978;53.586;10.052;2024-02-15T07:10:24;59.95;;;22.98;;
47239;SDS011;32978;53.586;10.052;2024-02-15T07:15:20;56.85;;;23.50;;
47239;SDS011;32978;53.586;10.052;2024-02-15T07:20:17;55.42;;;23.08;;
47239;SDS011;32978;53.586;10.052;2024-02-15T07:25:13;51.38;;;22.52;;
47239;SDS011;32978;53.586;10.052;2024-02-15T07:30:10;52.35;;;22.60;;
47239;SDS011;32978;53.586;10.052;2024-02-15T07:35:07;53.90;;;21.55;;
47239;SDS011;32978;53.586;10.052;2024-02-15T07:40:04;51.78;;;22.38;;
47239;SDS011;32978;53.586;10.052;2024-02-15T07:45:03;47.83;;;22.10;;
47239;SDS011;32978;53.586;10.052;2024-02-15T07:50:03;46.30;;;20.38;;
47239;SDS011;32978;53.586;10.052;2024-02-15T07:54:59;41.65;;;18.70;;
47239;SDS011;32978;53.586;10.052;2024-02-15T07:59:57;44.53;;;19.35;;
47239;SDS011;32978;53.586;10.052;2024-02-15T08:04:54;40.05;;;18.77;;
47239;SDS011;32978;53.586;10.052;2024-02-15T08:09:51;37.40;;;19.50;;
47239;SDS011;32978;53.586;10.052;2024-02-15T08:14:47;37.13;;;19.40;;
47239;SDS011;32978;53.586;10.052;2024-02-15T08:19:44;37.78;;;19.13;;
47239;SDS011;32978;53.586;10.052;2024-02-15T08:24:42;45.03;;;20.13;;
47239;SDS011;32978;53.586;10.052;2024-02-15T08:29:40;39.35;;;20.05;;
47239;SDS011;32978;53.586;10.052;2024-02-15T08:34:36;36.92;;;19.80;;
47239;SDS011;32978;53.586;10.052;2024-02-15T08:39:34;38.15;;;18.50;;
47239;SDS011;32978;53.586;10.052;2024-02-15T08:44:31;33.33;;;18.08;;
47239;SDS011;32978;53.586;10.052;2024-02-15T08:49:27;33.38;;;20.02;;
47239;SDS011;32978;53.586;10.052;2024-02-15T08:54:27;39.65;;;18.38;;
47239;SDS011;32978;53.586;10.052;2024-02-15T08:59:23;29.13;;;16.45;;
47239;SDS011;32978;53.586;10.052;2024-02-15T09:04:20;22.55;;;13.05;;
47239;SDS011;32978;53.586;10.052;2024-02-15T09:09:19;24.20;;;14.23;;
47239;SDS011;32978;53.586;10.052;2024-02-15T09:14:16;21.17;;;15.40;;
47239;SDS011;32978;53.586;10.052;2024-02-15T09:19:12;25.10;;;14.52;;
47239;SDS011;32978;53.586;10.052;2024-02-15T09:24:10;20.98;;;14.57;;
47239;SDS011;32978;53.586;10.052;2024-02-15T09:29:07;24.38;;;13.82;;
47239;SDS011;32978;53.586;10.052;2024-02-15T09:34:04;24.65;;;15.10;;
47239;SDS011;32978;53.586;10.052;2024-02-15T09:39:03;19.38;;;15.23;;
47239;SDS011;32978;53.586;10.052;2024-02-15T09:44:00;17.52;;;13.90;;
47239;SDS011;32978;53.586;10.052;2024-02-15T09:48:57;20.52;;;14.13;;
47239;SDS011;32978;53.586;10.052;2024-02-15T09:53:55;18.90;;;14.00;;
47239;SDS011;32978;53.586;10.052;2024-02-15T09:58:54;23.00;;;14.35;;
47239;SDS011;32978;53.586;10.052;2024-02-15T10:03:50;21.48;;;14.00;;
47239;SDS011;32978;53.586;10.052;2024-02-15T10:08:48;23.00;;;14.82;;
47239;SDS011;32978;53.586;10.052;2024-02-15T10:13:44;19.33;;;14.60;;
47239;SDS011;32978;53.586;10.052;2024-02-15T10:18:42;26.17;;;15.88;;
47239;SDS011;32978;53.586;10.052;2024-02-15T10:23:39;33.95;;;19.70;;
47239;SDS011;32978;53.586;10.052;2024-02-15T10:28:36;26.45;;;16.40;;
47239;SDS011;32978;53.586;10.052;2024-02-15T10:33:32;25.48;;;16.92;;
47239;SDS011;32978;53.586;10.052;2024-02-15T10:38:30;35.50;;;19.27;;
47239;SDS011;32978;53.586;10.052;2024-02-15T10:43:27;35.50;;;20.10;;
47239;SDS011;32978;53.586;10.052;2024-02-15T10:48:24;31.83;;;19.55;;
47239;SDS011;32978;53.586;10.052;2024-02-15T10:53:21;31.00;;;19.23;;
47239;SDS011;32978;53.586;10.052;2024-02-15T10:58:22;34.22;;;20.08;;
47239;SDS011;32978;53.586;10.052;2024-02-15T11:03:25;33.67;;;20.25;;
47239;SDS011;32978;53.586;10.052;2024-02-15T11:08:29;37.17;;;21.20;;
47239;SDS011;32978;53.586;10.052;2024-02-15T11:13:26;37.60;;;21.85;;
47239;SDS011;32978;53.586;10.052;2024-02-15T11:18:42;41.70;;;24.70;;
47239;SDS011;32978;53.586;10.052;2024-02-15T11:23:44;38.92;;;23.23;;
47239;SDS011;32978;53.586;10.052;2024-02-15T11:28:43;41.78;;;25.05;;
47239;SDS011;32978;53.586;10.052;2024-02-15T11:33:42;44.30;;;24.83;;
47239;SDS011;32978;53.586;10.052;2024-02-15T11:38:40;47.17;;;26.00;;
47239;SDS011;32978;53.586;10.052;2024-02-15T11:48:41;41.10;;;25.02;;
47239;SDS011;32978;53.586;10.052;2024-02-15T11:53:38;43.42;;;26.10;;
47239;SDS011;32978;53.586;10.052;2024-02-15T11:58:37;41.75;;;25.65;;
47239;SDS011;32978;53.586;10.052;2024-02-15T12:03:52;41.20;;;25.58;;
47239;SDS011;32978;53.586;10.052;2024-02-15T12:09:08;49.13;;;25.70;;
47239;SDS011;32978;53.586;10.052;2024-02-15T12:14:24;36.05;;;24.52;;
47239;SDS011;32978;53.586;10.052;2024-02-15T12:19:40;48.00;;;26.60;;
47239;SDS011;32978;53.586;10.052;2024-02-15T12:24:36;42.15;;;25.05;;
47239;SDS011;32978;53.586;10.052;2024-02-15T12:29:33;49.70;;;26.17;;
47239;SDS011;32978;53.586;10.052;2024-02-15T12:34:31;40.97;;;24.00;;
47239;SDS011;32978;53.586;10.052;2024-02-15T12:39:28;35.53;;;22.30;;
47239;SDS011;32978;53.586;10.052;2024-02-15T12:44:25;38.03;;;21.75;;
47239;SDS011;32978;53.586;10.052;2024-02-15T12:54:20;35.78;;;21.20;;
47239;SDS011;32978;53.586;10.052;2024-02-15T12:59:17;31.08;;;18.88;;
47239;SDS011;32978;53.586;10.052;2024-02-15T13:04:24;28.55;;;18.58;;
47239;SDS011;32978;53.586;10.052;2024-02-15T13:09:24;30.55;;;18.05;;
47239;SDS011;32978;53.586;10.052;2024-02-15T13:14:21;23.40;;;16.02;;
47239;SDS011;32978;53.586;10.052;2024-02-15T13:19:18;23.98;;;15.77;;
47239;SDS011;32978;53.586;10.052;2024-02-15T13:24:17;25.75;;;14.77;;
47239;SDS011;32978;53.586;10.052;2024-02-15T13:29:15;22.45;;;14.48;;
47239;SDS011;32978;53.586;10.052;2024-02-15T13:34:11;24.42;;;13.88;;
47239;SDS011;32978;53.586;10.052;2024-02-15T13:39:08;21.05;;;13.13;;
47239;SDS011;32978;53.586;10.052;2024-02-15T13:44:05;15.25;;;11.40;;
47239;SDS011;32978;53.586;10.052;2024-02-15T13:49:03;19.23;;;11.55;;
47239;SDS011;32978;53.586;10.052;2024-02-15T13:53:59;15.20;;;11.30;;
47239;SDS011;32978;53.586;10.052;2024-02-15T13:58:56;15.93;;;11.27;;
47239;SDS011;32978;53.586;10.052;2024-02-15T14:03:59;20.63;;;11.52;;
47239;SDS011;32978;53.586;10.052;2024-02-15T14:08:55;20.25;;;11.43;;
47239;SDS011;32978;53.586;10.052;2024-02-15T14:13:52;17.98;;;12.82;;
47239;SDS011;32978;53.586;10.052;2024-02-15T14:18:54;19.42;;;12.77;;
47239;SDS011;32978;53.586;10.052;2024-02-15T14:23:51;17.40;;;11.65;;
47239;SDS011;32978;53.586;10.052;2024-02-15T14:28:47;14.68;;;10.93;;
47239;SDS011;32978;53.586;10.052;2024-02-15T14:33:45;14.23;;;12.15;;
47239;SDS011;32978;53.586;10.052;2024-02-15T14:38:46;16.98;;;11.50;;
47239;SDS011;32978;53.586;10.052;2024-02-15T14:43:43;15.68;;;12.35;;
47239;SDS011;32978;53.586;10.052;2024-02-15T14:48:39;17.77;;;11.65;;
47239;SDS011;32978;53.586;10.052;2024-02-15T14:53:37;18.38;;;11.90;;
47239;SDS011;32978;53.586;10.052;2024-02-15T14:58:34;15.40;;;11.10;;
47239;SDS011;32978;53.586;10.052;2024-02-15T15:03:31;18.33;;;12.75;;
47239;SDS011;32978;53.586;10.052;2024-02-15T15:08:34;16.75;;;12.07;;
47239;SDS011;32978;53.586;10.052;2024-02-15T15:13:49;23.73;;;15.07;;
47239;SDS011;32978;53.586;10.052;2024-02-15T15:18:49;17.85;;;12.77;;
47239;SDS011;32978;53.586;10.052;2024-02-15T15:23:46;16.15;;;12.85;;
47239;SDS011;32978;53.586;10.052;2024-02-15T15:28:42;16.50;;;13.48;;
47239;SDS011;32978;53.586;10.052;2024-02-15T15:33:39;15.40;;;12.38;;
47239;SDS011;32978;53.586;10.052;2024-02-15T15:38:35;18.23;;;13.20;;
47239;SDS011;32978;53.586;10.052;2024-02-15T15:43:32;15.25;;;13.40;;
47239;SDS011;32978;53.586;10.052;2024-02-15T15:48:29;15.55;;;13.38;;
47239;SDS011;32978;53.586;10.052;2024-02-15T15:53:25;18.08;;;13.80;;
47239;SDS011;32978;53.586;10.052;2024-02-15T15:58:23;15.32;;;13.43;;
47239;SDS011;32978;53.586;10.052;2024-02-15T16:03:20;18.88;;;12.88;;
47239;SDS011;32978;53.586;10.052;2024-02-15T16:08:18;17.95;;;13.38;;
47239;SDS011;32978;53.586;10.052;2024-02-15T16:13:15;17.45;;;13.48;;
47239;SDS011;32978;53.586;10.052;2024-02-15T16:18:12;15.52;;;14.05;;
47239;SDS011;32978;53.586;10.052;2024-02-15T16:23:10;18.38;;;15.25;;
47239;SDS011;32978;53.586;10.052;2024-02-15T16:28:07;18.08;;;14.02;;
47239;SDS011;32978;53.586;10.052;2024-02-15T16:33:04;17.85;;;14.52;;
47239;SDS011;32978;53.586;10.052;2024-02-15T16:38:01;17.15;;;13.63;;
47239;SDS011;32978;53.586;10.052;2024-02-15T16:42:57;19.08;;;14.60;;
47239;SDS011;32978;53.586;10.052;2024-02-15T16:47:54;15.63;;;12.93;;
47239;SDS011;32978;53.586;10.052;2024-02-15T16:52:56;19.17;;;12.98;;
47239;SDS011;32978;53.586;10.052;2024-02-15T16:57:53;16.48;;;13.27;;
47239;SDS011;32978;53.586;10.052;2024-02-15T17:02:57;19.17;;;14.18;;
47239;SDS011;32978;53.586;10.052;2024-02-15T17:07:54;16.45;;;14.25;;
47239;SDS011;32978;53.586;10.052;2024-02-15T17:12:52;19.42;;;14.80;;
47239;SDS011;32978;53.586;10.052;2024-02-15T17:17:49;17.63;;;15.68;;
47239;SDS011;32978;53.586;10.052;2024-02-15T17:22:46;24.45;;;14.85;;
47239;SDS011;32978;53.586;10.052;2024-02-15T17:27:43;21.88;;;16.02;;
47239;SDS011;32978;53.586;10.052;2024-02-15T17:32:41;20.35;;;16.15;;
47239;SDS011;32978;53.586;10.052;2024-02-15T17:37:40;19.65;;;15.18;;
47239;SDS011;32978;53.586;10.052;2024-02-15T17:42:37;23.15;;;16.88;;
47239;SDS011;32978;53.586;10.052;2024-02-15T17:47:38;20.65;;;16.27;;
47239;SDS011;32978;53.586;10.052;2024-02-15T17:52:36;24.30;;;16.10;;
47239;SDS011;32978;53.586;10.052;2024-02-15T17:57:33;20.13;;;15.57;;
47239;SDS011;32978;53.586;10.052;2024-02-15T18:02:29;22.02;;;16.55;;
47239;SDS011;32978;53.586;10.052;2024-02-15T18:07:26;24.33;;;15.55;;
47239;SDS011;32978;53.586;10.052;2024-02-15T18:12:25;18.08;;;14.02;;
47239;SDS011;32978;53.586;10.052;2024-02-15T18:17:23;23.52;;;16.10;;
47239;SDS011;32978;53.586;10.052;2024-02-15T18:22:22;20.75;;;16.15;;
47239;SDS011;32978;53.586;10.052;2024-02-15T18:27:24;18.63;;;14.73;;
47239;SDS011;32978;53.586;10.052;2024-02-15T18:32:21;24.05;;;16.73;;
47239;SDS011;32978;53.586;10.052;2024-02-15T18:37:18;26.02;;;15.63;;
47239;SDS011;32978;53.586;10.052;2024-02-15T18:42:15;16.15;;;12.60;;
47239;SDS011;32978;53.586;10.052;2024-02-15T18:47:13;18.55;;;12.55;;
47239;SDS011;32978;53.586;10.052;2024-02-15T18:52:09;21.05;;;13.15;;
47239;SDS011;32978;53.586;10.052;2024-02-15T18:57:06;14.88;;;12.02;;
47239;SDS011;32978;53.586;10.052;2024-02-15T19:02:05;12.65;;;10.65;;
47239;SDS011;32978;53.586;10.052;2024-02-15T19:07:04;14.20;;;11.07;;
47239;SDS011;32978;53.586;10.052;2024-02-15T19:12:01;15.65;;;11.98;;
47239;SDS011;32978;53.586;10.052;2024-02-15T19:16:58;17.92;;;12.38;;
47239;SDS011;32978;53.586;10.052;2024-02-15T19:21:55;19.05;;;12.95;;
47239;SDS011;32978;53.586;10.052;2024-02-15T19:26:51;19.75;;;13.52;;
47239;SDS011;32978;53.586;10.052;2024-02-15T19:31:48;14.48;;;11.55;;
47239;SDS011;32978;53.586;10.052;2024-02-15T19:36:46;14.88;;;11.38;;
47239;SDS011;32978;53.586;10.052;2024-02-15T19:41:53;16.42;;;12.52;;
47239;SDS011;32978;53.586;10.052;2024-02-15T19:46:51;14.35;;;11.35;;
47239;SDS011;32978;53.586;10.052;2024-02-15T19:51:47;13.50;;;10.88;;
47239;SDS011;32978;53.586;10.052;2024-02-15T19:56:45;12.63;;;9.45;;
47239;SDS011;32978;53.586;10.052;2024-02-15T20:01:42;14.98;;;10.90;;
47239;SDS011;32978;53.586;10.052;2024-02-15T20:06:43;16.45;;;10.70;;
47239;SDS011;32978;53.586;10.052;2024-02-15T20:11:40;17.23;;;9.88;;
47239;SDS011;32978;53.586;10.052;2024-02-15T20:16:37;12.60;;;10.10;;
47239;SDS011;32978;53.586;10.052;2024-02-15T20:21:35;14.57;;;10.63;;
47239;SDS011;32978;53.586;10.052;2024-02-15T20:26:32;11.70;;;9.88;;
47239;SDS011;32978;53.586;10.052;2024-02-15T20:31:28;11.70;;;9.25;;
47239;SDS011;32978;53.586;10.052;2024-02-15T20:36:28;12.23;;;8.70;;
47239;SDS011;32978;53.586;10.052;2024-02-15T20:41:25;11.35;;;9.23;;
47239;SDS011;32978;53.586;10.052;2024-02-15T20:46:26;12.23;;;9.93;;
47239;SDS011;32978;53.586;10.052;2024-02-15T20:51:24;14.93;;;9.23;;
47239;SDS011;32978;53.586;10.052;2024-02-15T20:56:21;12.18;;;9.38;;
47239;SDS011;32978;53.586;10.052;2024-02-15T21:01:18;12.65;;;9.88;;
47239;SDS011;32978;53.586;10.052;2024-02-15T21:06:16;15.35;;;10.52;;
47239;SDS011;32978;53.586;10.052;2024-02-15T21:11:18;11.50;;;8.55;;
47239;SDS011;32978;53.586;10.052;2024-02-15T21:16:19;14.70;;;9.43;;
47239;SDS011;32978;53.586;10.052;2024-02-15T21:21:17;14.30;;;8.43;;
47239;SDS011;32978;53.586;10.052;2024-02-15T21:26:14;14.75;;;9.23;;
47239;SDS011;32978;53.586;10.052;2024-02-15T21:31:10;14.07;;;9.32;;
47239;SDS011;32978;53.586;10.052;2024-02-15T21:36:13;12.48;;;8.52;;
47239;SDS011;32978;53.586;10.052;2024-02-15T21:41:11;11.45;;;8.48;;
47239;SDS011;32978;53.586;10.052;2024-02-15T21:46:08;11.10;;;8.80;;
47239;SDS011;32978;53.586;10.052;2024-02-15T21:51:06;11.88;;;8.18;;
47239;SDS011;32978;53.586;10.052;2024-02-15T21:56:04;9.55;;;7.78;;
47239;SDS011;32978;53.586;10.052;2024-02-15T22:01:01;10.13;;;8.07;;
47239;SDS011;32978;53.586;10.052;2024-02-15T22:05:57;10.98;;;8.13;;
47239;SDS011;32978;53.586;10.052;2024-02-15T22:10:54;10.50;;;9.02;;
47239;SDS011;32978;53.586;10.052;2024-02-15T22:15:51;12.05;;;9.23;;
47239;SDS011;32978;53.586;10.052;2024-02-15T22:20:47;11.23;;;8.45;;
47239;SDS011;32978;53.586;10.052;2024-02-15T22:25:45;10.05;;;8.27;;
47239;SDS011;32978;53.586;10.052;2024-02-15T22:30:42;11.25;;;9.25;;
47239;SDS011;32978;53.586;10.052;2024-02-15T22:35:38;11.48;;;9.10;;
47239;SDS011;32978;53.586;10.052;2024-02-15T22:40:34;11.82;;;8.85;;
47239;SDS011;32978;53.586;10.052;2024-02-15T22:45:31;10.38;;;8.90;;
47239;SDS011;32978;53.586;10.052;2024-02-15T22:50:28;12.13;;;8.85;;
47239;SDS011;32978;53.586;10.052;2024-02-15T22:55:25;11.23;;;9.15;;
47239;SDS011;32978;53.586;10.052;2024-02-15T23:00:22;13.70;;;10.27;;
47239;SDS011;32978;53.586;10.052;2024-02-15T23:05:18;12.00;;;9.48;;
47239;SDS011;32978;53.586;10.052;2024-02-15T23:10:15;9.90;;;8.85;;
47239;SDS011;32978;53.586;10.052;2024-02-15T23:15:12;10.88;;;9.07;;
47239;SDS011;32978;53.586;10.052;2024-02-15T23:20:11;9.73;;;8.73;;
47239;SDS011;32978;53.586;10.052;2024-02-15T23:25:10;9.40;;;8.30;;
47239;SDS011;32978;53.586;10.052;2024-02-15T23:30:08;12.38;;;8.23;;
47239;SDS011;32978;53.586;10.052;2024-02-15T23:35:06;13.02;;;8.93;;
47239;SDS011;32978;53.586;10.052;2024-02-15T23:40:07;9.65;;;8.27;;
47239;SDS011;32978;53.586;10.052;2024-02-15T23:45:18;12.65;;;8.57;;
47239;SDS011;32978;53.586;10.052;2024-02-15T23:50:15;13.32;;;9.40;;
47239;SDS011;32978;53.586;10.052;2024-02-15T23:55:13;12.73;;;8.00;;
